Gregory, Texas
Current Conditions -  °F | °C
As of 12:15 AM on Sunday 26 Oct 2014 (Local Time) from KTFP Reporting Station
Clear Clear  
Wind Chill: 71°   Ceiling: Unl
Heat Index: 71°   Visibility: 10mi
Dew Point: 64°   Wind: 3mph
Humidity: 78%   Direction: 160°SSE
Pressure: 30.08"   Gusts: NA
Location:  27.92°N, 97.29°W
Report Text: KTFP 260515Z AUTO 16003KT 10SM CLR 21/18 A3008 RMK AO2 T02140175
Loading
Personal Weather Stations






























Interactive Weather Map
Tropical Storm Tracking
New forecast layout! Learn more

10-Day Weather Forecast

Advertisements
Track Severe Weather on mobile